»·PEaware :: AAL969 KMIA-KDFW

AAL969 :: KMIA-KDFW

FLIGHT INFORMATION

Flight Status: Arrived
Operator:
American Airlines
More flights by this operator :: More flights under this callsign
Pilot: Jeff G. (394)
Aircraft: BOEING 777-200
(B772)
More flights by this aircraft type
Origin: KMIA Miami Intl
United States
Destination: KDFW Dallas-Ft Worth Intl
United States
More flights between these airports :: More routes between these airports
Route: WINCO2 WINCO J73 LBV SRQ Q100 REDFN Q105 HRV J58 AEX PNUTS BEREE1
File this flight plan on PilotEdge
Remarks: / L testing x-plane 11
Altitude:
(Current/Filed)
380ft
Speed:
(Current/Filed)
461kts
Departed: 07-Feb-17 07:26 AM
Arrived: 07-Feb-17 10:16 AM
Distance/Time
Traveled:
971nm/2:50
Distance/Time
To Go:
Arrived

Flight Plot

Page will automatically refresh every two minutes.

Flight plan parsing failed; only flown route is shown


Map Options




Map Legend


Flown Route
Filed Route
Departure Airport
Arrival Airport
Navaid (VOR, NDB)
Fix

Horizontal Profiles

Position Reports

Time Latitude Longitude Heading Altitude Ground
Speed
07-Feb-17 06:57 25.798499 -80.280564 224 23ft 0kts
07-Feb-17 06:58 25.798758 -80.280199 274 23ft 0kts
07-Feb-17 06:59 25.798640 -80.280052 347 23ft 0kts
07-Feb-17 07:00 25.798586 -80.280051 5 23ft 0kts
07-Feb-17 07:01 25.798586 -80.280051 5 23ft 0kts
07-Feb-17 07:02 25.798586 -80.280051 5 23ft 0kts
07-Feb-17 07:03 25.798586 -80.280051 5 23ft 0kts
07-Feb-17 07:04 25.798586 -80.280051 5 23ft 0kts
07-Feb-17 07:05 25.798586 -80.280051 5 23ft 0kts
07-Feb-17 07:06 25.798586 -80.280051 5 23ft 0kts
07-Feb-17 07:07 25.798586 -80.280051 5 23ft 0kts
07-Feb-17 07:08 25.798586 -80.280051 5 23ft 0kts
07-Feb-17 07:09 25.798586 -80.280051 5 23ft 0kts
07-Feb-17 07:10 25.798586 -80.280051 5 23ft 0kts
07-Feb-17 07:11 25.798586 -80.280051 5 23ft 0kts
07-Feb-17 07:12 25.798586 -80.280051 5 23ft 0kts
07-Feb-17 07:13 25.798586 -80.280051 5 23ft 0kts
07-Feb-17 07:14 25.798586 -80.280051 5 23ft 0kts
07-Feb-17 07:15 25.798586 -80.280051 5 23ft 0kts
07-Feb-17 07:16 25.798586 -80.280051 5 23ft 0kts
07-Feb-17 07:17 25.798599 -80.280050 5 23ft 1kts
07-Feb-17 07:18 25.799781 -80.281204 314 23ft 11kts
07-Feb-17 07:19 25.800333 -80.283024 266 23ft 5kts
07-Feb-17 07:20 25.800224 -80.287572 268 23ft 10kts
07-Feb-17 07:21 25.800046 -80.291122 266 23ft 19kts
07-Feb-17 07:22 25.799725 -80.297576 266 23ft 0kts
07-Feb-17 07:23 25.799749 -80.298559 274 23ft 12kts
07-Feb-17 07:24 25.799945 -80.300217 283 23ft 11kts
07-Feb-17 07:25 25.800731 -80.300314 86 23ft 0kts
07-Feb-17 07:26 25.801677 -80.278857 87 312ft 210kts
07-Feb-17 07:27 25.804820 -80.219395 88 3993ft 230kts
07-Feb-17 07:28 25.851973 -80.169476 351 8915ft 296kts
07-Feb-17 07:29 25.904216 -80.242250 278 11239ft 376kts
07-Feb-17 07:30 25.942068 -80.343339 303 16246ft 369kts
07-Feb-17 07:31 26.008150 -80.433601 306 19879ft 389kts
07-Feb-17 07:32 26.078642 -80.526053 305 23346ft 404kts
07-Feb-17 07:33 26.151242 -80.621225 305 26642ft 419kts
07-Feb-17 07:34 26.226057 -80.719503 304 29970ft 434kts
07-Feb-17 07:35 26.304567 -80.822861 304 33538ft 451kts
07-Feb-17 07:36 26.383048 -80.926355 303 38154ft 434kts
07-Feb-17 07:37 26.466469 -81.021457 310 38172ft 440kts
07-Feb-17 07:38 26.555763 -81.112634 310 38165ft 440kts
07-Feb-17 07:39 26.644466 -81.203217 310 38171ft 440kts
07-Feb-17 07:40 26.733127 -81.293927 310 38170ft 440kts
07-Feb-17 07:41 26.820227 -81.385192 303 38156ft 434kts
07-Feb-17 07:42 26.880466 -81.496332 293 38159ft 425kts
07-Feb-17 07:43 26.937156 -81.609705 293 38164ft 426kts
07-Feb-17 07:44 26.993602 -81.723183 293 38185ft 427kts
07-Feb-17 07:45 27.050443 -81.837754 293 38188ft 428kts
07-Feb-17 07:46 27.106712 -81.951468 293 38183ft 428kts
07-Feb-17 07:47 27.163775 -82.067114 293 38180ft 428kts
07-Feb-17 07:48 27.220775 -82.182943 293 38171ft 428kts
07-Feb-17 07:49 27.277864 -82.299268 293 38152ft 428kts
07-Feb-17 07:50 27.334948 -82.415896 293 38136ft 428kts
07-Feb-17 07:51 27.391823 -82.532428 293 38129ft 427kts
07-Feb-17 07:52 27.424255 -82.656949 278 38130ft 418kts
07-Feb-17 07:53 27.448279 -82.784709 278 38140ft 417kts
07-Feb-17 07:54 27.471916 -82.912323 278 38140ft 419kts
07-Feb-17 07:55 27.495565 -83.040657 279 38143ft 421kts
07-Feb-17 07:56 27.519156 -83.169216 279 38148ft 421kts
07-Feb-17 07:57 27.542687 -83.298199 279 38151ft 421kts
07-Feb-17 07:58 27.566044 -83.427072 279 38149ft 421kts
07-Feb-17 07:59 27.589303 -83.556067 279 38149ft 421kts
07-Feb-17 08:00 27.610177 -83.672477 278 38159ft 421kts
07-Feb-17 08:01 27.633278 -83.801950 278 38158ft 421kts
07-Feb-17 08:02 27.656123 -83.930777 278 38157ft 421kts
07-Feb-17 08:03 27.678877 -84.059725 278 38155ft 421kts
07-Feb-17 08:04 27.701634 -84.189452 278 38154ft 421kts
07-Feb-17 08:05 27.724048 -84.317974 278 38152ft 421kts
07-Feb-17 08:06 27.746397 -84.446884 278 38151ft 421kts
07-Feb-17 08:07 27.768563 -84.575424 278 38140ft 421kts
07-Feb-17 08:08 27.790649 -84.704317 278 38128ft 421kts
07-Feb-17 08:09 27.812723 -84.833858 278 38109ft 421kts
07-Feb-17 08:10 27.833965 -84.959213 278 38102ft 421kts
07-Feb-17 08:11 27.855592 -85.087968 279 38099ft 417kts
07-Feb-17 08:12 27.876855 -85.215062 280 38110ft 414kts
07-Feb-17 08:13 27.907502 -85.334700 288 38096ft 408kts
07-Feb-17 08:14 27.943902 -85.455281 288 38093ft 407kts
07-Feb-17 08:15 27.980056 -85.575224 288 38090ft 407kts
07-Feb-17 08:16 28.016291 -85.695817 288 38104ft 407kts
07-Feb-17 08:17 28.052402 -85.816399 287 38101ft 407kts
07-Feb-17 08:18 28.088109 -85.936073 288 38099ft 407kts
07-Feb-17 08:19 28.123790 -86.056076 287 38101ft 407kts
07-Feb-17 08:20 28.159081 -86.175211 287 38100ft 407kts
07-Feb-17 08:21 28.194632 -86.295663 287 38088ft 407kts
07-Feb-17 08:22 28.229908 -86.415612 287 38077ft 407kts
07-Feb-17 08:23 28.265089 -86.535664 287 38075ft 407kts
07-Feb-17 08:24 28.300145 -86.655733 287 38075ft 407kts
07-Feb-17 08:25 28.335316 -86.775996 287 38063ft 407kts
07-Feb-17 08:26 28.369733 -86.893705 287 38040ft 406kts
07-Feb-17 08:27 28.404859 -87.014194 287 38036ft 401kts
07-Feb-17 08:28 28.438881 -87.131378 287 38034ft 395kts
07-Feb-17 08:29 28.472911 -87.249038 287 38032ft 396kts
07-Feb-17 08:30 28.506826 -87.366746 287 38030ft 396kts
07-Feb-17 08:31 28.540608 -87.484356 287 38028ft 396kts
07-Feb-17 08:32 28.574373 -87.602350 287 38026ft 396kts
07-Feb-17 08:33 28.607829 -87.719694 287 38039ft 396kts
07-Feb-17 08:34 28.641300 -87.837548 287 38039ft 396kts
07-Feb-17 08:35 28.674595 -87.955189 287 38037ft 396kts
07-Feb-17 08:36 28.707524 -88.071988 287 38034ft 396kts
07-Feb-17 08:37 28.740791 -88.190424 287 38032ft 396kts
07-Feb-17 08:38 28.773761 -88.308243 287 38030ft 396kts
07-Feb-17 08:39 28.806652 -88.426219 287 38014ft 396kts
07-Feb-17 08:40 28.839591 -88.544809 287 37994ft 396kts
07-Feb-17 08:41 28.871978 -88.661869 287 37995ft 396kts
07-Feb-17 08:42 28.931786 -88.765907 305 38002ft 402kts
07-Feb-17 08:43 29.003888 -88.862037 305 38001ft 404kts
07-Feb-17 08:44 29.076728 -88.959014 304 37991ft 409kts
07-Feb-17 08:45 29.150348 -89.057280 304 37990ft 415kts
07-Feb-17 08:46 29.224381 -89.156316 304 37986ft 413kts
07-Feb-17 08:47 29.296826 -89.253403 304 37985ft 413kts
07-Feb-17 08:48 29.370460 -89.352366 304 37988ft 415kts
07-Feb-17 08:49 29.443890 -89.451250 304 37986ft 414kts
07-Feb-17 08:50 29.517420 -89.550521 304 37980ft 414kts
07-Feb-17 08:51 29.590757 -89.649818 304 37977ft 413kts
07-Feb-17 08:52 29.663673 -89.748752 304 37988ft 414kts
07-Feb-17 08:53 29.735579 -89.846594 304 37995ft 412kts
07-Feb-17 08:54 29.807656 -89.944840 304 37997ft 414kts
07-Feb-17 08:55 29.874570 -90.044847 298 38002ft 410kts
07-Feb-17 08:56 29.935465 -90.150008 299 37984ft 410kts
07-Feb-17 08:57 29.996141 -90.254991 298 37974ft 409kts
07-Feb-17 08:58 30.055705 -90.358315 298 37973ft 410kts
07-Feb-17 08:59 30.115163 -90.461721 298 37972ft 410kts
07-Feb-17 09:00 30.175298 -90.566560 298 37960ft 409kts
07-Feb-17 09:01 30.233557 -90.668426 298 37964ft 410kts
07-Feb-17 09:02 30.290281 -90.767797 298 37966ft 409kts
07-Feb-17 09:03 30.348632 -90.870336 298 37955ft 410kts
07-Feb-17 09:04 30.408301 -90.975466 298 37949ft 409kts
07-Feb-17 09:05 30.466241 -91.077748 298 37943ft 399kts
07-Feb-17 09:06 30.524277 -91.180512 298 37941ft 392kts
07-Feb-17 09:07 30.581472 -91.282040 298 37941ft 390kts
07-Feb-17 09:08 30.638714 -91.383921 298 37938ft 390kts
07-Feb-17 09:09 30.695988 -91.486103 298 37932ft 390kts
07-Feb-17 09:10 30.752907 -91.587942 298 37930ft 390kts
07-Feb-17 09:11 30.807880 -91.686556 297 37952ft 390kts
07-Feb-17 09:12 30.862098 -91.784021 298 37937ft 390kts
07-Feb-17 09:13 30.915340 -91.879994 297 37937ft 399kts
07-Feb-17 09:14 30.971881 -91.982205 297 37933ft 413kts
07-Feb-17 09:15 31.029265 -92.086213 298 37907ft 425kts
07-Feb-17 09:16 31.087793 -92.192403 298 37884ft 428kts
07-Feb-17 09:17 31.143078 -92.293104 298 37882ft 427kts
07-Feb-17 09:18 31.199493 -92.396134 298 37885ft 424kts
07-Feb-17 09:19 31.255805 -92.501664 292 37866ft 421kts
07-Feb-17 09:20 31.296494 -92.617606 289 37872ft 420kts
07-Feb-17 09:21 31.335926 -92.733118 288 37887ft 420kts
07-Feb-17 09:22 31.374574 -92.846910 288 37887ft 421kts
07-Feb-17 09:23 31.414393 -92.964831 289 37889ft 409kts
07-Feb-17 09:24 31.453214 -93.080099 291 37889ft 397kts
07-Feb-17 09:25 31.491316 -93.193436 292 37875ft 393kts
07-Feb-17 09:26 31.529129 -93.306311 291 37868ft 392kts
07-Feb-17 09:27 31.567109 -93.420122 292 37859ft 393kts
07-Feb-17 09:28 31.604424 -93.532559 290 37862ft 393kts
07-Feb-17 09:29 31.634627 -93.650060 287 37863ft 393kts
07-Feb-17 09:30 31.663405 -93.764143 287 37880ft 393kts
07-Feb-17 09:31 31.692769 -93.881372 287 37869ft 394kts
07-Feb-17 09:32 31.721565 -93.996688 287 37854ft 393kts
07-Feb-17 09:33 31.750982 -94.115126 287 37843ft 394kts
07-Feb-17 09:34 31.780344 -94.233714 287 37846ft 394kts
07-Feb-17 09:35 31.809638 -94.352658 287 37855ft 394kts
07-Feb-17 09:36 31.839038 -94.472629 287 37852ft 393kts
07-Feb-17 09:37 31.868458 -94.593108 287 37840ft 393kts
07-Feb-17 09:38 31.897376 -94.712172 286 37847ft 393kts
07-Feb-17 09:39 31.926379 -94.832075 287 37842ft 393kts
07-Feb-17 09:40 31.955062 -94.951524 289 37830ft 388kts
07-Feb-17 09:41 31.984040 -95.072281 291 36318ft 387kts
07-Feb-17 09:42 32.012350 -95.190426 291 34236ft 390kts
07-Feb-17 09:43 32.040955 -95.310445 290 32470ft 394kts
07-Feb-17 09:44 32.069668 -95.431806 289 31333ft 400kts
07-Feb-17 09:45 32.098930 -95.556127 289 30461ft 403kts
07-Feb-17 09:46 32.127315 -95.677213 288 29692ft 402kts
07-Feb-17 09:47 32.155630 -95.798568 288 28987ft 391kts
07-Feb-17 09:48 32.182202 -95.913134 288 28196ft 363kts
07-Feb-17 09:49 32.207745 -96.023581 288 27387ft 345kts
07-Feb-17 09:50 32.232582 -96.131150 287 26006ft 342kts
07-Feb-17 09:51 32.256675 -96.236032 287 24432ft 335kts
07-Feb-17 09:52 32.289804 -96.334081 309 22855ft 330kts
07-Feb-17 09:53 32.351773 -96.410648 311 21270ft 327kts
07-Feb-17 09:54 32.415729 -96.484763 311 19646ft 323kts
07-Feb-17 09:55 32.478914 -96.557625 311 18018ft 318kts
07-Feb-17 09:56 32.541002 -96.628802 311 16397ft 314kts
07-Feb-17 09:57 32.602104 -96.698139 311 14882ft 303kts
07-Feb-17 09:58 32.660897 -96.764484 311 13418ft 295kts
07-Feb-17 09:59 32.717750 -96.828981 311 12074ft 288kts
07-Feb-17 10:00 32.773593 -96.892462 311 10986ft 269kts
07-Feb-17 10:01 32.839651 -96.913756 350 10629ft 251kts
07-Feb-17 10:02 32.907679 -96.914150 352 9533ft 249kts
07-Feb-17 10:03 32.976069 -96.913793 353 8483ft 245kts
07-Feb-17 10:04 33.043372 -96.913386 354 7666ft 242kts
07-Feb-17 10:05 33.109274 -96.912961 355 6596ft 242kts
07-Feb-17 10:06 33.174927 -96.912495 355 5673ft 235kts
07-Feb-17 10:07 33.222819 -96.944246 271 4630ft 219kts
07-Feb-17 10:08 33.203884 -97.011218 245 3987ft 205kts
07-Feb-17 10:09 33.152652 -97.028167 186 3653ft 207kts
07-Feb-17 10:10 33.097522 -97.028938 185 3432ft 195kts
07-Feb-17 10:11 33.044469 -97.029242 185 3073ft 197kts
07-Feb-17 10:12 32.994618 -97.029465 186 2142ft 161kts
07-Feb-17 10:13 32.952002 -97.029706 184 1317ft 154kts
07-Feb-17 10:14 32.903148 -97.029965 183 590ft 177kts
07-Feb-17 10:15 32.873830 -97.030345 166 568ft 61kts
07-Feb-17 10:16 32.869246 -97.023764 358 576ft 2kts

Navigation Log

Ident Type
Flight plan parsing failed, navigation log unavailable